Saxon, Wisconsin
Current Conditions -  °F | °C
As of 9:15 AM on Friday 31 Oct 2014 (Local Time) from KIWD Reporting Station
Overcast Overcast  
Wind Chill: 19°   Ceiling: 2300
Heat Index: 28°   Visibility: 2.5mi
Dew Point: 25°   Wind: 10mph
Humidity: 86%   Direction: 20°NNE
Pressure: 30.43"   Gusts: 22mph
Location:  46.49°N, 90.41°W
Report Text: KIWD 311415Z AUTO 02009G19KT 2 1/2SM SCT014 BKN023 OVC035 M02/M04 A3043 RMK AO1
Loading
Personal Weather Stations






























Interactive Weather Map
Tropical Storm Tracking
New forecast layout! Learn more

10-Day Weather Forecast

Advertisements
Track Severe Weather on mobile